createdAt,value
2022-10-07T00:00:52.358Z,53.30
2022-10-07T00:03:19.003Z,53.20
2022-10-07T00:05:45.614Z,53.30
2022-10-07T00:08:12.206Z,53.20
2022-10-07T00:10:38.832Z,53.20
2022-10-07T00:13:05.427Z,53.30
2022-10-07T00:15:32.043Z,53.20
2022-10-07T00:17:58.648Z,53.10
2022-10-07T00:20:25.256Z,53.10
2022-10-07T00:22:51.841Z,53.20
2022-10-07T00:25:18.429Z,53.10
2022-10-07T00:27:45.505Z,53.10
2022-10-07T00:30:12.462Z,53.00
2022-10-07T00:32:39.062Z,53.00
2022-10-07T00:35:05.653Z,52.90
2022-10-07T00:37:32.175Z,53.00
2022-10-07T00:39:58.654Z,53.10
2022-10-07T00:42:25.135Z,52.90
2022-10-07T00:44:51.607Z,53.00
2022-10-07T00:47:18.082Z,53.00
2022-10-07T00:49:44.541Z,52.90
2022-10-07T00:52:11.029Z,53.10
2022-10-07T00:54:37.537Z,52.90
2022-10-07T00:57:03.998Z,53.10
2022-10-07T00:59:30.455Z,53.00
2022-10-07T01:01:56.944Z,52.90
2022-10-07T01:04:23.436Z,52.80
2022-10-07T01:06:49.917Z,52.90
2022-10-07T01:09:16.375Z,52.80
2022-10-07T01:11:42.859Z,52.90
2022-10-07T01:14:09.322Z,52.90
2022-10-07T01:16:35.921Z,52.90
2022-10-07T01:19:02.431Z,53.40
2022-10-07T01:21:28.887Z,52.90
2022-10-07T01:23:55.344Z,52.80
2022-10-07T01:26:21.811Z,52.70
2022-10-07T01:28:48.277Z,52.70
2022-10-07T01:31:14.826Z,52.80
2022-10-07T01:33:41.366Z,52.70
2022-10-07T01:36:07.843Z,52.60
2022-10-07T01:38:34.313Z,52.70
2022-10-07T01:41:00.784Z,52.80
2022-10-07T01:43:27.257Z,52.70
2022-10-07T01:45:53.793Z,52.60
2022-10-07T01:48:20.286Z,52.60
2022-10-07T01:50:46.777Z,52.60
2022-10-07T01:53:13.240Z,52.60
2022-10-07T01:55:39.706Z,52.60
2022-10-07T01:58:06.179Z,52.60
2022-10-07T02:00:32.650Z,52.60
2022-10-07T02:02:59.115Z,52.60
2022-10-07T02:05:25.611Z,52.60
2022-10-07T02:07:52.072Z,52.60
2022-10-07T02:10:18.568Z,52.60
2022-10-07T02:12:45.036Z,52.50
2022-10-07T02:15:11.561Z,52.50
2022-10-07T02:17:38.032Z,52.50
2022-10-07T02:20:04.535Z,52.60
2022-10-07T02:22:31.018Z,52.50
2022-10-07T02:24:57.480Z,52.40
2022-10-07T02:27:23.967Z,52.40
2022-10-07T02:29:50.450Z,52.30
2022-10-07T02:32:16.924Z,52.30
2022-10-07T02:34:43.407Z,52.40
2022-10-07T02:37:09.905Z,52.20
2022-10-07T02:39:36.367Z,52.20
2022-10-07T02:42:02.837Z,52.20
2022-10-07T02:44:29.303Z,52.10
2022-10-07T02:46:55.757Z,52.20
2022-10-07T02:49:22.171Z,52.80
2022-10-07T02:51:48.646Z,52.10
2022-10-07T02:54:15.112Z,52.10
2022-10-07T02:56:41.588Z,52.00
2022-10-07T02:59:08.046Z,52.00
2022-10-07T03:01:34.615Z,52.00
2022-10-07T03:04:01.172Z,51.90
2022-10-07T03:06:27.657Z,52.00
2022-10-07T03:08:54.128Z,52.00
2022-10-07T03:11:20.614Z,51.90
2022-10-07T03:13:47.043Z,51.90
2022-10-07T03:16:13.588Z,51.90
2022-10-07T03:18:40.137Z,51.90
2022-10-07T03:21:06.600Z,51.90
2022-10-07T03:23:33.076Z,51.90
2022-10-07T03:25:59.551Z,51.80
2022-10-07T03:28:26.094Z,51.80
2022-10-07T03:30:52.649Z,51.80
2022-10-07T03:33:19.135Z,51.90
2022-10-07T03:35:45.631Z,52.40
2022-10-07T03:38:12.106Z,51.70
2022-10-07T03:40:38.599Z,51.90
2022-10-07T03:43:05.067Z,51.70
2022-10-07T03:45:31.566Z,51.70
2022-10-07T03:47:58.042Z,51.70
2022-10-07T03:50:24.538Z,51.70
2022-10-07T03:52:51.001Z,51.80
2022-10-07T03:55:17.489Z,51.80
2022-10-07T03:57:44.129Z,51.80
2022-10-07T04:00:10.772Z,51.60
2022-10-07T04:02:37.286Z,51.60
2022-10-07T04:05:03.799Z,51.70
2022-10-07T04:07:30.284Z,51.60
2022-10-07T04:09:56.762Z,51.60
2022-10-07T04:12:23.246Z,51.50
2022-10-07T04:14:49.727Z,51.50
2022-10-07T04:17:16.220Z,51.40
2022-10-07T04:19:42.678Z,52.10
2022-10-07T04:22:09.260Z,51.50
2022-10-07T04:24:35.726Z,51.50
2022-10-07T04:27:02.185Z,51.40
2022-10-07T04:29:28.644Z,51.30
2022-10-07T04:31:55.203Z,51.40
2022-10-07T04:34:21.716Z,51.30
2022-10-07T04:36:48.195Z,51.30
2022-10-07T04:39:14.677Z,51.40
2022-10-07T04:41:41.155Z,51.30
2022-10-07T04:44:07.642Z,51.30
2022-10-07T04:46:34.170Z,51.30
2022-10-07T04:49:00.663Z,51.40
2022-10-07T04:51:27.129Z,51.20
2022-10-07T04:53:56.740Z,51.30
2022-10-07T04:56:23.743Z,51.40
2022-10-07T04:58:50.234Z,51.30
2022-10-07T05:01:16.757Z,51.30
2022-10-07T05:03:43.287Z,51.10
2022-10-07T05:06:09.776Z,51.10
2022-10-07T05:08:36.243Z,51.20
2022-10-07T05:11:02.722Z,51.20
2022-10-07T05:13:29.197Z,51.10
2022-10-07T05:15:55.711Z,51.30
2022-10-07T05:18:22.219Z,51.20
2022-10-07T05:20:48.702Z,51.20
2022-10-07T05:23:15.164Z,51.10
2022-10-07T05:25:41.666Z,51.10
2022-10-07T05:28:08.197Z,51.10
2022-10-07T05:30:34.741Z,51.00
2022-10-07T05:33:01.224Z,51.00
2022-10-07T05:35:27.712Z,51.00
2022-10-07T05:37:54.490Z,50.90
2022-10-07T05:40:21.151Z,51.00
2022-10-07T05:42:47.630Z,51.10
2022-10-07T05:45:14.116Z,50.90
2022-10-07T05:47:40.598Z,51.00
2022-10-07T05:50:07.091Z,50.90
2022-10-07T05:52:33.573Z,50.70
2022-10-07T05:55:00.080Z,50.70
2022-10-07T05:57:26.550Z,50.80
2022-10-07T05:59:53.032Z,50.90
2022-10-07T06:02:19.599Z,50.90
2022-10-07T06:04:46.190Z,50.80
2022-10-07T06:07:15.835Z,50.70
2022-10-07T06:09:44.754Z,50.80
2022-10-07T06:12:11.251Z,50.60
2022-10-07T06:14:37.730Z,50.70
2022-10-07T06:17:04.240Z,50.80
2022-10-07T06:19:30.728Z,50.70
2022-10-07T06:21:57.204Z,50.70
2022-10-07T06:24:23.676Z,50.70
2022-10-07T06:26:50.148Z,50.80
2022-10-07T06:29:16.626Z,50.70
2022-10-07T06:31:43.109Z,50.60
2022-10-07T06:34:09.589Z,50.70
2022-10-07T06:36:36.063Z,50.60
2022-10-07T06:39:02.524Z,50.60
2022-10-07T06:41:29.007Z,50.80
2022-10-07T06:43:55.476Z,50.60
2022-10-07T06:46:21.991Z,50.70
2022-10-07T06:48:48.526Z,50.70
2022-10-07T06:51:15.056Z,51.30
2022-10-07T06:53:41.557Z,50.90
2022-10-07T06:56:08.066Z,50.80
2022-10-07T06:58:34.543Z,50.80
2022-10-07T07:01:01.084Z,50.70
2022-10-07T07:03:27.611Z,50.70
2022-10-07T07:05:54.789Z,50.80
2022-10-07T07:08:21.527Z,50.80
2022-10-07T07:10:48.002Z,50.80
2022-10-07T07:13:14.471Z,50.90
2022-10-07T07:15:40.967Z,51.00
2022-10-07T07:18:07.444Z,50.90
2022-10-07T07:20:33.926Z,50.90
2022-10-07T07:23:00.406Z,50.90
2022-10-07T07:25:26.900Z,51.00
2022-10-07T07:27:57.621Z,51.00
2022-10-07T07:30:24.449Z,51.10
2022-10-07T07:32:50.909Z,51.00
2022-10-07T07:35:17.404Z,51.10
2022-10-07T07:37:44.105Z,51.10
2022-10-07T07:40:10.859Z,51.10
2022-10-07T07:42:37.338Z,51.10
2022-10-07T07:45:03.857Z,51.30
2022-10-07T07:47:30.342Z,51.20
2022-10-07T07:49:56.823Z,51.30
2022-10-07T07:52:23.291Z,51.20
2022-10-07T07:54:49.793Z,51.80
2022-10-07T07:57:16.267Z,51.20
2022-10-07T07:59:42.771Z,51.30
2022-10-07T08:02:09.336Z,51.20
2022-10-07T08:04:35.866Z,51.30
2022-10-07T08:07:02.326Z,51.30
2022-10-07T08:09:28.807Z,51.30
2022-10-07T08:11:55.258Z,51.30
2022-10-07T08:14:21.761Z,51.40
2022-10-07T08:16:48.260Z,51.50
2022-10-07T08:19:14.748Z,51.30
2022-10-07T08:21:41.230Z,51.30
2022-10-07T08:24:07.706Z,51.40
2022-10-07T08:26:34.188Z,51.40
2022-10-07T08:29:00.661Z,51.30
2022-10-07T08:31:27.174Z,51.30
2022-10-07T08:33:53.701Z,51.40
2022-10-07T08:36:20.180Z,51.30
2022-10-07T08:38:49.411Z,51.40
2022-10-07T08:41:15.881Z,51.50
2022-10-07T08:43:42.347Z,51.60
2022-10-07T08:46:08.855Z,51.50
2022-10-07T08:48:35.339Z,51.50
2022-10-07T08:51:01.801Z,51.60
2022-10-07T08:53:28.275Z,51.70
2022-10-07T08:55:54.744Z,51.70
2022-10-07T08:58:21.217Z,52.00
2022-10-07T09:00:47.691Z,51.80
2022-10-07T09:03:14.146Z,51.80
2022-10-07T09:05:40.642Z,51.60
2022-10-07T09:08:07.099Z,51.70
2022-10-07T09:10:33.569Z,51.60
2022-10-07T09:13:00.026Z,51.50
2022-10-07T09:15:26.498Z,51.70
2022-10-07T09:17:52.974Z,51.70
2022-10-07T09:20:19.457Z,51.80
2022-10-07T09:22:45.919Z,52.00
2022-10-07T09:25:12.407Z,52.00
2022-10-07T09:27:38.877Z,52.00
2022-10-07T09:30:05.373Z,52.00
2022-10-07T09:32:31.838Z,52.10
2022-10-07T09:34:58.327Z,52.10
2022-10-07T09:37:24.799Z,52.80
2022-10-07T09:39:51.290Z,52.10
2022-10-07T09:42:17.767Z,52.20
2022-10-07T09:44:44.267Z,52.20
2022-10-07T09:47:10.752Z,52.10
2022-10-07T09:49:37.240Z,52.20
2022-10-07T09:52:03.705Z,52.00
2022-10-07T09:54:30.158Z,52.00
2022-10-07T09:56:56.653Z,51.90
2022-10-07T09:59:23.174Z,51.90
2022-10-07T10:01:49.701Z,52.00
2022-10-07T10:04:16.198Z,51.90
2022-10-07T10:06:42.895Z,51.90
2022-10-07T10:09:09.378Z,51.90
2022-10-07T10:11:35.858Z,51.90
2022-10-07T10:14:02.314Z,52.00
2022-10-07T10:16:28.870Z,52.00
2022-10-07T10:18:55.442Z,51.90
2022-10-07T10:21:21.918Z,52.00
2022-10-07T10:23:48.389Z,52.00
2022-10-07T10:26:14.854Z,52.10
2022-10-07T10:28:41.397Z,52.00
2022-10-07T10:31:07.939Z,52.00
2022-10-07T10:33:34.451Z,52.10
2022-10-07T10:36:00.932Z,52.80
2022-10-07T10:38:27.400Z,52.20
2022-10-07T10:40:53.891Z,52.20
2022-10-07T10:43:20.366Z,52.30
2022-10-07T10:45:46.850Z,52.40
2022-10-07T10:48:13.485Z,52.50
2022-10-07T10:50:39.954Z,52.40
2022-10-07T10:53:06.415Z,52.60
2022-10-07T10:55:32.929Z,52.40
2022-10-07T10:58:00.686Z,52.50
2022-10-07T11:00:27.471Z,52.60
2022-10-07T11:02:54.003Z,52.60
2022-10-07T11:05:20.849Z,52.60
2022-10-07T11:07:47.380Z,52.60
2022-10-07T11:10:13.865Z,52.60
2022-10-07T11:12:40.812Z,52.60
2022-10-07T11:15:07.302Z,52.80
2022-10-07T11:17:33.765Z,52.80
2022-10-07T11:20:00.491Z,53.30
2022-10-07T11:22:27.033Z,52.60
2022-10-07T11:24:53.526Z,52.50
2022-10-07T11:27:20.005Z,52.60
2022-10-07T11:29:46.538Z,52.50
2022-10-07T11:32:13.023Z,52.40
2022-10-07T11:34:39.492Z,52.40
2022-10-07T11:37:06.004Z,52.50
2022-10-07T11:39:32.480Z,52.60
2022-10-07T11:41:58.980Z,52.50
2022-10-07T11:44:25.470Z,52.60
2022-10-07T11:46:51.982Z,52.50
2022-10-07T11:49:18.488Z,52.50
2022-10-07T11:51:44.963Z,52.50
2022-10-07T11:54:11.434Z,52.50
2022-10-07T11:56:37.903Z,52.50
2022-10-07T11:59:04.382Z,52.50
2022-10-07T12:01:30.898Z,52.50
2022-10-07T12:03:57.424Z,52.30
2022-10-07T12:06:23.926Z,52.30
2022-10-07T12:08:50.401Z,52.30
2022-10-07T12:11:16.873Z,52.40
2022-10-07T12:13:43.349Z,52.30
2022-10-07T12:16:09.850Z,52.20
2022-10-07T12:18:36.365Z,52.30
2022-10-07T12:21:02.865Z,52.30
2022-10-07T12:23:29.342Z,52.40
2022-10-07T12:25:55.822Z,52.20
2022-10-07T12:28:22.346Z,52.30
2022-10-07T12:30:48.867Z,52.20
2022-10-07T12:33:15.361Z,52.40
2022-10-07T12:35:41.828Z,52.30
2022-10-07T12:38:08.295Z,52.40
2022-10-07T12:40:34.777Z,52.20
2022-10-07T12:43:01.241Z,52.20
2022-10-07T12:45:27.773Z,52.20
2022-10-07T12:47:54.275Z,52.40
2022-10-07T12:50:20.780Z,52.30
2022-10-07T12:52:47.596Z,52.20
2022-10-07T12:55:14.395Z,52.20
2022-10-07T12:57:40.878Z,52.30
2022-10-07T13:00:07.370Z,52.40
2022-10-07T13:02:33.856Z,52.30
2022-10-07T13:05:00.364Z,52.40
2022-10-07T13:07:26.834Z,52.40
2022-10-07T13:09:53.308Z,53.00
2022-10-07T13:12:19.790Z,52.40
2022-10-07T13:14:46.266Z,52.40
2022-10-07T13:17:12.727Z,52.40
2022-10-07T13:19:39.191Z,52.30
2022-10-07T13:22:05.665Z,52.30
2022-10-07T13:24:32.140Z,52.30
2022-10-07T13:26:58.606Z,52.40
2022-10-07T13:29:25.081Z,52.30
2022-10-07T13:31:51.590Z,52.40
2022-10-07T13:34:18.078Z,52.30
2022-10-07T13:36:44.568Z,52.40
2022-10-07T13:39:11.053Z,52.40
2022-10-07T13:41:37.550Z,52.40
2022-10-07T13:44:04.012Z,52.40
2022-10-07T13:46:30.495Z,52.40
2022-10-07T13:48:56.979Z,52.40
2022-10-07T13:51:23.469Z,52.30
2022-10-07T13:53:49.957Z,52.40
2022-10-07T13:56:16.437Z,52.40
2022-10-07T13:58:42.891Z,52.40
2022-10-07T14:01:09.459Z,52.50
2022-10-07T14:03:36.017Z,52.40
2022-10-07T14:06:02.510Z,52.50
2022-10-07T14:08:28.991Z,52.40
2022-10-07T14:10:55.457Z,52.50
2022-10-07T14:13:21.928Z,52.60
2022-10-07T14:15:48.436Z,52.50
2022-10-07T14:18:14.908Z,52.40
2022-10-07T14:20:41.402Z,52.50
2022-10-07T14:23:07.885Z,52.50
2022-10-07T14:25:34.378Z,52.50
2022-10-07T14:28:00.906Z,53.00
2022-10-07T14:30:27.464Z,52.40
2022-10-07T14:32:53.952Z,52.40
2022-10-07T14:35:20.440Z,52.40
2022-10-07T14:37:46.915Z,52.50
2022-10-07T14:40:13.413Z,52.40
2022-10-07T14:42:39.878Z,52.50
2022-10-07T14:45:06.350Z,52.50
2022-10-07T14:47:32.811Z,52.50
2022-10-07T14:49:59.338Z,52.40
2022-10-07T14:52:25.905Z,52.50
2022-10-07T14:54:52.371Z,52.40
2022-10-07T14:57:18.840Z,52.40
2022-10-07T14:59:45.323Z,52.40
2022-10-07T15:02:11.798Z,52.50
2022-10-07T15:04:38.369Z,52.40
2022-10-07T15:07:04.920Z,52.30
2022-10-07T15:09:31.401Z,52.40
2022-10-07T15:11:57.883Z,52.30
2022-10-07T15:14:24.369Z,52.30
2022-10-07T15:16:50.883Z,52.30
2022-10-07T15:19:17.368Z,52.30
2022-10-07T15:21:43.850Z,52.30
2022-10-07T15:24:10.320Z,52.30
2022-10-07T15:26:36.798Z,52.30
2022-10-07T15:29:03.280Z,52.30
2022-10-07T15:31:29.895Z,52.30
2022-10-07T15:33:56.419Z,52.30
2022-10-07T15:36:22.883Z,52.30
2022-10-07T15:38:49.363Z,52.30
2022-10-07T15:41:15.842Z,52.30
2022-10-07T15:43:42.295Z,52.20
2022-10-07T15:46:08.831Z,52.30
2022-10-07T15:48:35.346Z,52.10
2022-10-07T15:51:01.846Z,52.20
2022-10-07T15:53:28.312Z,52.10
2022-10-07T15:55:54.792Z,52.10
2022-10-07T15:58:21.252Z,52.20
2022-10-07T16:00:47.735Z,52.10
2022-10-07T16:03:14.201Z,52.10
2022-10-07T16:05:40.720Z,52.10
2022-10-07T16:08:07.201Z,52.10
2022-10-07T16:10:33.750Z,52.10
2022-10-07T16:13:00.229Z,52.10
2022-10-07T16:15:26.693Z,52.10
2022-10-07T16:17:53.151Z,52.10
2022-10-07T16:20:19.646Z,52.10
2022-10-07T16:22:46.313Z,52.10
2022-10-07T16:25:13.002Z,52.10
2022-10-07T16:27:41.050Z,52.00
2022-10-07T16:30:07.518Z,52.10
2022-10-07T16:32:34.000Z,52.10
2022-10-07T16:35:00.463Z,52.00
2022-10-07T16:37:26.951Z,52.10
2022-10-07T16:39:53.421Z,52.00
2022-10-07T16:42:23.090Z,52.10
2022-10-07T16:44:50.813Z,52.10
2022-10-07T16:50:11.068Z,52.10
2022-10-07T16:52:37.754Z,52.20
2022-10-07T16:55:04.231Z,52.10
2022-10-07T16:57:35.278Z,52.20
2022-10-07T17:00:05.100Z,52.20
2022-10-07T17:05:22.138Z,52.20
2022-10-07T17:07:59.267Z,52.30
2022-10-07T17:13:16.504Z,52.30
2022-10-07T17:15:42.992Z,52.40
2022-10-07T17:18:09.515Z,52.30
2022-10-07T17:20:35.997Z,52.30
2022-10-07T17:23:02.458Z,52.40
2022-10-07T17:25:28.938Z,52.40
2022-10-07T17:27:59.249Z,52.30
2022-10-07T17:33:16.430Z,52.40
2022-10-07T17:38:33.369Z,52.40
2022-10-07T17:40:59.868Z,52.50
2022-10-07T17:43:26.327Z,52.60
2022-10-07T17:45:52.805Z,52.60
2022-10-07T17:48:23.256Z,52.60
2022-10-07T17:53:40.266Z,52.60
2022-10-07T17:56:06.758Z,52.60
2022-10-07T17:58:33.226Z,52.60
2022-10-07T18:00:59.780Z,52.60
2022-10-07T18:03:26.335Z,52.60
2022-10-07T18:05:52.813Z,52.60
2022-10-07T18:08:19.266Z,52.60
2022-10-07T18:10:47.160Z,52.70
2022-10-07T18:13:13.651Z,52.70
2022-10-07T18:15:40.140Z,52.70
2022-10-07T18:18:06.620Z,52.70
2022-10-07T18:20:33.123Z,52.80
2022-10-07T18:23:05.353Z,52.90
2022-10-07T18:25:31.843Z,52.80
2022-10-07T18:27:59.154Z,52.70
2022-10-07T18:30:25.722Z,52.70
2022-10-07T18:35:36.380Z,52.80
2022-10-07T18:38:02.838Z,52.90
2022-10-07T18:40:29.335Z,52.90
2022-10-07T18:43:05.197Z,52.90
2022-10-07T18:45:35.256Z,52.90
2022-10-07T18:48:01.761Z,52.80
2022-10-07T18:50:33.466Z,52.90
2022-10-07T18:53:00.244Z,53.00
2022-10-07T18:58:23.212Z,52.90
2022-10-07T19:00:49.801Z,52.80
2022-10-07T19:03:16.369Z,52.80
2022-10-07T19:14:15.400Z,52.90
2022-10-07T19:16:41.922Z,52.90
2022-10-07T19:19:08.451Z,52.90
2022-10-07T19:21:34.939Z,52.90
2022-10-07T19:24:05.335Z,52.90
2022-10-07T19:26:31.800Z,52.90
2022-10-07T19:28:58.272Z,53.00
2022-10-07T19:31:24.776Z,53.00
2022-10-07T19:33:51.270Z,52.90
2022-10-07T19:41:59.605Z,52.90
2022-10-07T19:44:29.317Z,52.90
2022-10-07T19:46:59.249Z,52.90
2022-10-07T19:49:25.721Z,52.90
2022-10-07T19:51:53.250Z,53.00
2022-10-07T19:54:23.251Z,52.90
2022-10-07T19:56:49.732Z,52.90
2022-10-07T19:59:16.209Z,52.90
2022-10-07T20:01:42.757Z,52.90
2022-10-07T20:04:11.206Z,52.90
2022-10-07T20:06:41.273Z,52.90
2022-10-07T20:09:07.755Z,52.90
2022-10-07T20:14:29.211Z,52.90
2022-10-07T20:22:36.634Z,53.00
2022-10-07T20:25:03.094Z,52.90
2022-10-07T20:30:20.191Z,53.10
2022-10-07T20:32:47.410Z,53.10
2022-10-07T20:38:05.286Z,53.00
2022-10-07T20:40:35.270Z,53.00
2022-10-07T20:43:05.496Z,53.00
2022-10-07T20:48:22.582Z,52.90
2022-10-07T20:50:53.314Z,52.90
2022-10-07T20:53:19.791Z,52.90
2022-10-07T20:55:46.281Z,52.90
2022-10-07T20:58:12.749Z,52.90
2022-10-07T21:00:41.299Z,52.90
2022-10-07T21:03:11.346Z,52.90
2022-10-07T21:08:28.626Z,52.80
2022-10-07T21:10:55.111Z,52.80
2022-10-07T21:13:21.577Z,52.70
2022-10-07T21:15:53.302Z,52.80
2022-10-07T21:18:19.779Z,52.60
2022-10-07T21:20:46.288Z,52.70
2022-10-07T21:23:17.534Z,52.60
2022-10-07T21:25:44.024Z,52.60
2022-10-07T21:28:11.343Z,52.60
2022-10-07T21:30:37.918Z,52.60
2022-10-07T21:33:04.419Z,52.60
2022-10-07T21:35:30.913Z,52.50
2022-10-07T21:37:57.380Z,52.30
2022-10-07T21:43:17.322Z,52.50
2022-10-07T21:45:43.863Z,52.40
2022-10-07T21:48:17.408Z,52.40
2022-10-07T21:53:35.349Z,52.50
2022-10-07T21:56:01.828Z,52.50
2022-10-07T21:58:41.389Z,52.40
2022-10-07T22:01:07.915Z,52.30
2022-10-07T22:03:34.429Z,52.40
2022-10-07T22:06:05.363Z,52.50
2022-10-07T22:08:35.356Z,52.50
2022-10-07T22:11:05.355Z,52.40
2022-10-07T22:13:31.830Z,52.40
2022-10-07T22:15:58.456Z,52.40
2022-10-07T22:18:25.010Z,52.40
2022-10-07T22:20:53.329Z,52.40
2022-10-07T22:23:19.801Z,52.50
2022-10-07T22:25:46.251Z,52.50
2022-10-07T22:28:12.757Z,52.50
2022-10-07T22:30:39.355Z,52.30
2022-10-07T22:33:05.887Z,52.30
2022-10-07T22:35:35.379Z,52.50
2022-10-07T22:38:01.840Z,52.40
2022-10-07T22:40:28.321Z,52.30
2022-10-07T22:42:54.792Z,52.30
2022-10-07T22:45:21.251Z,52.30
2022-10-07T22:47:53.404Z,52.30
2022-10-07T22:50:19.879Z,52.40
2022-10-07T22:52:46.525Z,52.30
2022-10-07T22:57:57.256Z,52.40
2022-10-07T23:00:23.738Z,52.30
2022-10-07T23:02:53.517Z,52.40
2022-10-07T23:05:20.082Z,52.30
2022-10-07T23:07:46.549Z,52.40
2022-10-07T23:10:13.014Z,52.40
2022-10-07T23:12:41.422Z,52.50
2022-10-07T23:15:11.418Z,52.50
2022-10-07T23:17:37.907Z,52.40
2022-10-07T23:20:04.450Z,52.50
2022-10-07T23:22:30.939Z,52.50
2022-10-07T23:24:57.422Z,52.40
2022-10-07T23:27:23.878Z,52.50
2022-10-07T23:29:53.554Z,52.40
2022-10-07T23:32:23.434Z,52.50
2022-10-07T23:34:53.497Z,52.60
2022-10-07T23:37:23.437Z,52.50
2022-10-07T23:39:49.895Z,52.50
2022-10-07T23:42:17.440Z,52.50
2022-10-07T23:44:43.908Z,52.50
2022-10-07T23:47:10.406Z,52.50
2022-10-07T23:49:41.593Z,52.50
2022-10-07T23:54:58.605Z,52.50
2022-10-07T23:57:25.109Z,52.50
2022-10-07T23:59:51.591Z,52.70
